Terminal Aerodrome Forecast
Issued by NWS

Home | Current Version | Previous Version | Text Only | Print | Product List | Glossary On
Versions: 1 2 3 4 5 6 7 8 9 10 11 12 13 14 15 16 17
000
FTUS46 KSGX 041120
TAFONT
TAF
KONT 041120Z 0412/0518 VRB04KT P6SM OVC016
     FM041800 VRB05KT P6SM SCT020
     FM042100 25010G18KT P6SM SKC
     FM050400 25006KT P6SM SCT020
     FM050800 VRB03KT P6SM BKN018
     FM051700 VRB05KT P6SM SCT018 BKN025=

USA.gov is the U.S. government's official web portal to all federal, state and local government web resources and services.